Time;durP1;ratioP1;P1;durP2;ratioP2;P2;SDS_P1;SDS_P2;PMS_P1;PMS_P2;Temp;Humidity;BMP_temperature;BMP_pressure;BME280_temperature;BME280_humidity;BME280_pressure;Samples;Min_cycle;Max_cycle;Signal;HPM_P1;HPM_P2
2023/07/05 00:00:55;;;;;;;;;;;;;;;25.75;56.59;100565.94;5056064;28;20040;-77
2023/07/05 00:03:47;;;;;;;2.38;1.15;;;;;;;25.69;56.96;100569.66;5052154;28;19912;-76
2023/07/05 00:06:39;;;;;;;;;;;;;;;25.75;56.74;100576.31;5057230;28;20130;-77
2023/07/05 00:09:31;;;;;;;4.38;1.45;;;;;;;25.76;56.69;100591.81;5054812;28;19913;-77
2023/07/05 00:12:27;;;;;;;2.80;1.40;;;;;;;25.82;56.84;100582.56;5051776;28;20741;-78
2023/07/05 00:15:19;;;;;;;2.05;1.38;;;;;;;25.78;56.72;100584.63;5055081;28;20524;-76
2023/07/05 00:18:13;;;;;;;3.25;1.08;;;;;;;25.65;57.39;100582.84;5053526;28;20052;-77
2023/07/05 00:21:09;;;;;;;4.70;1.60;;;;;;;25.71;57.20;100587.50;5054783;28;20051;-77
2023/07/05 00:24:03;;;;;;;3.63;1.33;;;;;;;25.69;57.16;100581.59;5040438;28;20052;-77
2023/07/05 00:26:53;;;;;;;;;;;;;;;25.66;57.35;100578.84;5052913;28;20048;-77
2023/07/05 00:29:47;;;;;;;6.13;1.30;;;;;;;25.71;57.43;100572.78;5041281;28;19913;-77
2023/07/05 00:32:42;;;;;;;2.85;1.48;;;;;;;25.69;56.93;100559.31;5050723;28;20040;-77
2023/07/05 00:35:34;;;;;;;;;;;;;;;25.79;57.18;100560.34;5049631;28;20041;-77
2023/07/05 00:38:26;;;;;;;3.45;1.25;;;;;;;25.73;57.66;100556.44;5052338;28;19917;-77
2023/07/05 00:41:21;;;;;;;1.75;1.45;;;;;;;25.66;57.97;100546.19;5053934;28;20056;-76
2023/07/05 00:44:13;;;;;;;;;;;;;;;25.69;57.91;100547.38;5060801;28;20437;-76
2023/07/05 00:47:24;;;;;;;4.30;1.63;;;;;;;25.74;57.48;100546.88;5057069;28;19913;-77
2023/07/05 00:50:31;;;;;;;2.47;1.58;;;;;;;25.73;57.76;100531.38;5046120;28;20048;-77
2023/07/05 00:53:27;;;;;;;2.10;1.35;;;;;;;25.75;57.62;100537.31;5055740;28;20051;-77
2023/07/05 00:56:28;;;;;;;6.32;1.58;;;;;;;25.72;57.77;100538.94;5055477;28;20044;-77
2023/07/05 00:59:22;;;;;;;4.43;1.60;;;;;;;25.69;57.94;100534.22;5055467;28;20060;-77
2023/07/05 01:02:16;;;;;;;4.47;1.70;;;;;;;25.71;57.85;100536.56;5054518;28;20055;-77
2023/07/05 01:05:11;;;;;;;5.32;1.60;;;;;;;25.49;58.17;100522.19;5059799;28;20044;-77
2023/07/05 01:08:06;;;;;;;4.78;1.77;;;;;;;25.57;58.33;100525.66;5042843;28;20048;-77
2023/07/05 01:11:36;;;;;;;1.45;1.23;;;;;;;25.45;58.39;100530.56;5055151;28;20052;-76
2023/07/05 01:14:36;;;;;;;3.15;1.90;;;;;;;25.47;58.34;100538.50;5042308;28;20059;-77
2023/07/05 01:17:39;;;;;;;3.88;1.95;;;;;;;25.49;58.47;100550.03;5059739;28;20036;-77
2023/07/05 01:20:52;;;;;;;2.75;1.30;;;;;;;25.31;59.27;100547.50;5043008;28;20048;-77
2023/07/05 01:24:22;;;;;;;5.18;1.80;;;;;;;25.22;59.82;100552.81;5044955;28;20401;-77
2023/07/05 01:27:36;;;;;;;3.03;1.50;;;;;;;25.50;58.60;100563.50;5056202;28;20405;-77
2023/07/05 01:30:44;;;;;;;6.70;1.92;;;;;;;25.53;58.60;100556.34;5058804;28;20572;-77
2023/07/05 01:33:50;;;;;;;4.13;1.27;;;;;;;25.41;58.90;100537.41;5054799;28;20056;-76
2023/07/05 01:36:43;;;;;;;1.83;1.20;;;;;;;25.50;58.35;100530.09;5043017;28;20044;-76
2023/07/05 01:39:36;;;;;;;4.85;1.42;;;;;;;25.47;58.28;100544.88;5041582;28;20055;-76
2023/07/05 01:42:31;;;;;;;2.90;1.73;;;;;;;25.45;58.36;100538.94;5040088;28;20068;-76
2023/07/05 01:45:37;;;;;;;2.33;1.38;;;;;;;25.42;58.63;100556.47;5057161;28;20064;-76
2023/07/05 01:48:58;;;;;;;5.18;1.75;;;;;;;25.51;58.34;100551.16;5045098;28;20048;-76
2023/07/05 01:51:58;;;;;;;2.47;1.48;;;;;;;25.54;58.16;100569.84;5040979;28;20056;-78
2023/07/05 01:55:13;;;;;;;3.53;1.10;;;;;;;25.04;58.67;100588.44;5045021;28;20060;-77
2023/07/05 01:58:16;;;;;;;6.97;2.47;;;;;;;24.57;61.12;100606.81;5054312;28;20063;-77
2023/07/05 02:01:14;;;;;;;10.02;1.63;;;;;;;25.19;59.13;100623.22;5044650;28;20040;-77
2023/07/05 02:04:09;;;;;;;9.65;2.42;;;;;;;24.98;60.00;100617.94;5043166;28;20048;-77
2023/07/05 02:07:02;;;;;;;9.38;1.50;;;;;;;24.84;60.24;100634.75;5053227;28;20398;-76
2023/07/05 02:09:57;;;;;;;6.05;1.45;;;;;;;24.69;59.65;100634.88;5043512;28;20044;-76
2023/07/05 02:12:51;;;;;;;8.38;1.83;;;;;;;24.74;59.57;100669.03;5040987;28;20048;-76
2023/07/05 02:15:46;;;;;;;21.75;2.78;;;;;;;24.46;60.28;100662.53;5035920;28;20516;-76
2023/07/05 02:18:40;;;;;;;19.08;4.00;;;;;;;24.21;61.18;100692.53;5050877;28;20048;-76
2023/07/05 03:19:32;;;;;;;34.65;7.22;;;;;;;21.60;70.63;100755.38;5087996;28;20514;-77
2023/07/05 03:22:35;;;;;;;20.42;5.82;;;;;;;21.42;69.80;100749.78;5113063;28;20066;-76
2023/07/05 03:25:37;;;;;;;20.52;6.13;;;;;;;21.36;71.40;100761.59;5102741;28;20039;-78
2023/07/05 03:28:41;;;;;;;10.15;2.75;;;;;;;20.58;74.45;100764.56;5110945;28;20043;-76
2023/07/05 03:31:43;;;;;;;25.55;7.57;;;;;;;21.57;73.07;100762.50;5110816;28;20421;-76
2023/07/05 03:34:46;;;;;;;5.70;2.03;;;;;;;20.74;74.16;100761.53;5114926;28;20046;-77
2023/07/05 03:37:50;;;;;;;7.25;2.53;;;;;;;21.23;72.87;100728.72;5115396;28;20047;-77
2023/07/05 03:40:59;;;;;;;5.43;1.55;;;;;;;21.40;72.06;100718.13;5114190;28;20043;-77
2023/07/05 03:44:01;;;;;;;5.95;2.13;;;;;;;21.08;73.38;100706.91;5116155;28;20222;-77
2023/07/05 03:47:04;;;;;;;5.28;2.78;;;;;;;21.43;72.73;100698.00;5115659;28;20408;-78
2023/07/05 03:50:06;;;;;;;6.68;2.45;;;;;;;21.46;71.76;100700.00;5115314;28;20051;-78
2023/07/05 03:53:09;;;;;;;9.27;1.65;;;;;;;21.31;71.65;100660.41;5116861;28;20051;-77
2023/07/05 03:56:14;;;;;;;3.70;2.00;;;;;;;21.49;72.36;100632.78;5118327;28;20054;-77
2023/07/05 03:59:18;;;;;;;5.22;1.75;;;;;;;21.58;70.78;100603.59;5115367;28;20047;-77
2023/07/05 04:02:20;;;;;;;2.90;1.23;;;;;;;21.89;69.61;100602.03;5112948;28;20518;-77
2023/07/05 04:05:23;;;;;;;2.85;1.17;;;;;;;21.86;69.46;100605.59;5114854;28;20039;-78
2023/07/05 04:08:26;;;;;;;5.60;1.73;;;;;;;22.25;70.13;100613.16;5115525;28;20050;-78
2023/07/05 04:11:28;;;;;;;3.90;1.60;;;;;;;22.12;68.64;100583.06;5100643;28;20047;-76
2023/07/05 04:14:31;;;;;;;4.38;1.92;;;;;;;22.09;69.85;100564.50;5115403;28;20050;-78
2023/07/05 04:17:36;;;;;;;6.60;2.13;;;;;;;21.96;68.88;100559.72;5099034;28;20042;-77
2023/07/05 04:20:40;;;;;;;2.17;1.13;;;;;;;21.60;70.17;100556.13;5118861;28;20042;-78
2023/07/05 04:23:43;;;;;;;5.78;1.63;;;;;;;20.98;72.75;100570.16;5113858;28;20391;-77
2023/07/05 04:26:46;;;;;;;2.90;1.20;;;;;;;20.67;74.34;100593.69;5113666;28;20043;-77
2023/07/05 04:29:48;;;;;;;2.38;1.23;;;;;;;20.74;75.09;100609.53;5113592;28;20042;-76
2023/07/05 04:32:51;;;;;;;3.10;1.42;;;;;;;20.46;76.43;100596.34;5117713;28;20538;-77
2023/07/05 04:35:59;;;;;;;6.00;1.88;;;;;;;20.68;75.75;100602.78;5114057;28;20050;-76
2023/07/05 04:39:03;;;;;;;4.00;2.10;;;;;;;21.12;73.29;100608.16;5113335;28;20042;-77
2023/07/05 04:42:05;;;;;;;3.13;2.08;;;;;;;21.59;72.07;100637.56;5104968;28;20035;-77
2023/07/05 04:45:08;;;;;;;3.83;1.63;;;;;;;21.09;73.92;100659.47;5104392;28;20056;-77
2023/07/05 04:48:10;;;;;;;6.55;1.50;;;;;;;21.17;76.86;100643.75;5106063;28;20515;-77
2023/07/05 04:51:13;;;;;;;7.28;2.13;;;;;;;22.24;70.12;100633.72;5093662;28;20051;-76
2023/07/05 04:54:16;;;;;;;12.48;2.38;;;;;;;22.69;68.40;100629.31;5085377;28;20043;-78
2023/07/05 04:57:18;;;;;;;12.02;2.30;;;;;;;22.85;67.00;100619.41;5088408;28;20521;-77
2023/07/05 05:00:22;;;;;;;5.47;1.52;;;;;;;23.36;66.61;100648.56;5100863;28;20102;-77
2023/07/05 05:03:27;;;;;;;4.93;1.98;;;;;;;22.83;64.69;100645.94;5107453;28;20051;-78
2023/07/05 05:06:30;;;;;;;6.55;1.65;;;;;;;22.35;68.55;100634.53;5113590;28;20038;-78
2023/07/05 05:09:33;;;;;;;3.92;1.88;;;;;;;20.88;73.85;100620.66;5100908;28;20058;-77
2023/07/05 05:12:35;;;;;;;3.63;2.22;;;;;;;19.64;83.09;100614.16;5103866;28;20518;-77
2023/07/05 05:15:41;;;;;;;3.55;1.80;;;;;;;20.18;82.28;100605.19;5105954;28;20066;-77
2023/07/05 05:18:44;;;;;;;3.83;1.70;;;;;;;21.81;74.54;100619.03;5117158;28;20046;-77
2023/07/05 05:21:46;;;;;;;6.38;1.75;;;;;;;22.54;71.29;100609.16;5112773;28;20054;-77
2023/07/05 05:24:49;;;;;;;6.40;1.77;;;;;;;22.34;71.63;100611.56;5113732;28;20055;-77
2023/07/05 05:27:52;;;;;;;5.35;1.83;;;;;;;22.03;70.89;100606.81;5087990;28;20036;-77
2023/07/05 05:30:54;;;;;;;4.07;1.65;;;;;;;22.50;71.55;100611.16;5093611;28;20527;-77
2023/07/05 05:33:57;;;;;;;4.05;2.17;;;;;;;22.32;69.46;100602.84;5103894;28;20043;-77
2023/07/05 05:37:00;;;;;;;3.58;1.90;;;;;;;22.08;69.53;100623.84;5095651;28;20407;-78
2023/07/05 05:40:02;;;;;;;9.60;2.30;;;;;;;21.97;74.57;100625.81;5102742;28;20157;-77
2023/07/05 05:43:05;;;;;;;14.40;2.28;;;;;;;22.86;70.38;100620.97;5116983;28;20062;-78
2023/07/05 05:46:07;;;;;;;5.10;1.75;;;;;;;23.40;67.32;100632.66;5115446;28;20506;-77
2023/07/05 05:49:10;;;;;;;7.53;2.85;;;;;;;23.65;65.86;100644.44;5116377;28;20042;-78
2023/07/05 05:52:13;;;;;;;21.08;3.10;;;;;;;23.60;65.31;100655.97;5116807;28;20042;-78
2023/07/05 05:55:15;;;;;;;6.00;1.80;;;;;;;21.52;71.52;100645.84;5115171;28;20050;-77
2023/07/05 05:58:18;;;;;;;8.27;2.85;;;;;;;20.00;80.03;100652.00;5114809;28;20514;-78
2023/07/05 06:01:20;;;;;;;6.50;2.03;;;;;;;19.15;88.67;100655.72;5115540;28;20042;-77
2023/07/05 06:04:23;;;;;;;4.00;2.47;;;;;;;20.17;85.38;100653.31;5114680;28;20430;-77
2023/07/05 06:07:26;;;;;;;3.25;1.42;;;;;;;20.31;80.19;100639.66;5116129;28;20043;-77
2023/07/05 06:10:28;;;;;;;3.00;2.00;;;;;;;20.45;78.04;100648.06;5116323;28;20046;-77
2023/07/05 06:13:31;;;;;;;3.03;1.92;;;;;;;20.06;82.29;100655.19;5115649;28;20047;-77
2023/07/05 06:16:34;;;;;;;3.72;2.28;;;;;;;19.88;82.37;100663.28;5114765;28;20047;-77
2023/07/05 06:19:36;;;;;;;4.47;1.80;;;;;;;20.13;81.04;100654.44;5092585;28;20050;-77
2023/07/05 06:22:39;;;;;;;12.40;3.17;;;;;;;20.95;78.38;100669.69;5094664;28;20047;-77
2023/07/05 06:25:41;;;;;;;12.70;3.58;;;;;;;21.40;75.36;100671.09;5095751;28;20063;-77
2023/07/05 06:28:44;;;;;;;7.53;2.22;;;;;;;21.88;72.59;100674.44;5096269;28;20050;-77
2023/07/05 06:31:47;;;;;;;6.03;2.13;;;;;;;22.31;70.53;100673.31;5110661;28;20051;-77
2023/07/05 06:34:49;;;;;;;4.03;2.10;;;;;;;22.50;70.74;100683.22;5095382;28;20408;-77
2023/07/05 06:37:52;;;;;;;5.60;2.22;;;;;;;22.74;69.01;100682.41;5098386;28;20047;-76
2023/07/05 06:40:58;;;;;;;3.05;1.52;;;;;;;22.93;68.47;100703.38;5081315;28;20047;-77
2023/07/05 06:44:01;;;;;;;5.50;1.80;;;;;;;22.65;67.94;100709.72;5112455;28;20039;-77
2023/07/05 06:47:03;;;;;;;7.63;1.77;;;;;;;22.49;69.99;100706.56;5097072;28;20047;-77
2023/07/05 06:50:06;;;;;;;4.40;1.90;;;;;;;22.09;71.89;100708.53;5107564;28;20064;-77
2023/07/05 06:53:09;;;;;;;4.10;1.77;;;;;;;22.35;70.86;100717.66;5094779;28;20537;-77
2023/07/05 06:56:11;;;;;;;2.78;1.98;;;;;;;22.48;69.68;100710.53;5093455;28;20051;-77
2023/07/05 06:59:14;;;;;;;5.90;2.30;;;;;;;22.64;69.67;100719.22;5093857;28;20439;-76
2023/07/05 07:02:17;;;;;;;3.38;2.08;;;;;;;22.58;70.90;100738.25;5093300;28;20047;-77
2023/07/05 07:05:20;;;;;;;2.60;2.00;;;;;;;23.10;67.72;100733.06;5097961;28;20047;-77
2023/07/05 07:08:22;;;;;;;5.03;2.10;;;;;;;23.06;68.39;100723.16;5095807;28;20043;-78
2023/07/05 07:11:25;;;;;;;2.90;1.42;;;;;;;23.35;66.71;100733.00;5107340;28;20534;-77
2023/07/05 07:14:28;;;;;;;5.15;1.90;;;;;;;23.04;68.07;100734.66;5095564;28;20541;-77
2023/07/05 07:17:30;;;;;;;3.08;1.70;;;;;;;23.25;67.81;100742.16;5093531;28;20055;-77
2023/07/05 07:20:33;;;;;;;4.47;2.13;;;;;;;23.38;66.85;100744.06;5094572;28;20047;-77
2023/07/05 07:23:35;;;;;;;4.55;2.25;;;;;;;23.61;65.67;100740.06;5098584;28;20043;-77
2023/07/05 07:26:38;;;;;;;4.90;1.85;;;;;;;23.59;65.56;100743.25;5095931;28;20043;-77
2023/07/05 07:29:41;;;;;;;6.43;1.85;;;;;;;22.87;67.91;100732.69;5088356;28;20059;-78
2023/07/05 07:32:44;;;;;;;4.47;2.38;;;;;;;21.92;73.93;100747.22;5092182;28;20039;-77
2023/07/05 07:35:47;;;;;;;8.60;2.78;;;;;;;21.94;70.90;100745.66;5075862;28;20043;-78
2023/07/05 07:38:49;;;;;;;4.15;1.98;;;;;;;21.85;72.70;100744.41;5091046;28;20044;-77
2023/07/05 07:41:52;;;;;;;5.50;2.38;;;;;;;22.74;68.62;100745.41;5087628;28;20503;-78
2023/07/05 07:44:56;;;;;;;4.10;2.10;;;;;;;22.30;70.67;100748.53;5100456;28;20038;-77
2023/07/05 07:47:59;;;;;;;8.40;2.08;;;;;;;22.76;68.43;100749.34;5100789;28;20043;-76
2023/07/05 07:51:01;;;;;;;7.97;2.53;;;;;;;22.82;68.32;100746.97;5105007;28;20048;-77
2023/07/05 07:54:04;;;;;;;3.20;2.13;;;;;;;22.62;69.16;100749.31;5098666;28;20039;-78
2023/07/05 07:57:07;;;;;;;6.85;2.58;;;;;;;22.99;67.46;100752.50;5074101;28;20120;-77
2023/07/05 08:00:09;;;;;;;6.40;2.47;;;;;;;23.40;67.29;100746.47;5083273;28;20047;-77
2023/07/05 08:03:16;;;;;;;10.50;2.72;;;;;;;23.17;65.53;100748.88;5074887;28;20051;-76
2023/07/05 08:06:19;;;;;;;2.72;2.30;;;;;;;22.43;69.72;100747.75;5073965;28;20405;-77
2023/07/05 08:09:27;;;;;;;4.60;2.88;;;;;;;23.63;65.95;100749.56;5093038;28;20408;-77
2023/07/05 08:12:29;;;;;;;6.57;2.40;;;;;;;24.07;63.84;100743.41;5110911;28;20043;-78
2023/07/05 08:15:32;;;;;;;7.00;2.65;;;;;;;23.98;62.96;100742.25;5114230;28;20510;-75
2023/07/05 08:18:35;;;;;;;3.78;1.83;;;;;;;24.65;60.37;100750.94;5100729;28;20050;-77
2023/07/05 08:21:37;;;;;;;4.80;1.80;;;;;;;24.78;59.48;100750.44;5112024;28;20046;-76
2023/07/05 08:24:40;;;;;;;3.67;2.33;;;;;;;24.04;63.78;100746.19;5117722;28;20050;-77
2023/07/05 08:27:43;;;;;;;3.22;2.00;;;;;;;23.83;63.48;100747.88;5114127;28;20050;-77
2023/07/05 08:30:45;;;;;;;3.35;2.65;;;;;;;24.01;64.00;100745.03;5114146;28;20411;-77
2023/07/05 08:33:48;;;;;;;6.90;2.30;;;;;;;24.10;63.88;100739.00;5108770;28;20046;-77
2023/07/05 08:36:51;;;;;;;3.38;2.70;;;;;;;23.75;64.34;100723.34;5095875;28;20050;-76
2023/07/05 08:39:53;;;;;;;4.47;2.80;;;;;;;24.26;63.89;100739.34;5114835;28;20038;-77
2023/07/05 08:43:03;;;;;;;3.35;2.33;;;;;;;25.06;60.83;100739.88;5119025;28;20043;-77
2023/07/05 08:46:14;;;;;;;2.88;2.20;;;;;;;25.65;59.08;100724.91;5113505;28;20042;-77
2023/07/05 08:49:21;;;;;;;2.75;2.25;;;;;;;26.85;54.73;100725.84;5113225;28;20407;-76
2023/07/05 08:52:43;;;;;;;4.95;2.92;;;;;;;25.40;59.47;100722.38;5113635;28;20043;-77
2023/07/05 08:56:06;;;;;;;6.72;2.88;;;;;;;24.97;61.48;100727.63;5114135;28;20411;-76
2023/07/05 08:59:17;;;;;;;4.60;2.70;;;;;;;24.46;62.48;100722.91;5112627;28;20047;-76
2023/07/05 09:02:20;;;;;;;5.30;2.53;;;;;;;25.47;59.33;100711.97;5115567;28;20407;-78
2023/07/05 09:05:34;;;;;;;3.35;1.83;;;;;;;27.00;54.56;100727.19;5116984;28;20042;-78
2023/07/05 09:08:52;;;;;;;4.25;2.20;;;;;;;25.01;59.94;100717.25;5119658;28;20400;-77
2023/07/05 09:11:59;;;;;;;5.25;1.60;;;;;;;25.34;58.88;100712.94;5083947;22;20533;-76
2023/07/05 09:15:22;;;;;;;4.28;2.05;;;;;;;26.36;55.25;100710.75;5029197;28;20048;-76
2023/07/05 09:18:49;;;;;;;3.63;2.50;;;;;;;25.80;56.44;100707.56;5036755;28;20409;-76
2023/07/05 09:21:53;;;;;;;2.47;1.70;;;;;;;26.34;54.85;100702.81;5027566;28;20045;-76
2023/07/05 09:24:55;;;;;;;2.58;1.67;;;;;;;27.38;52.80;100704.53;5028268;28;20406;-76
2023/07/05 09:27:59;;;;;;;2.83;1.58;;;;;;;29.18;47.67;100713.44;5027412;28;20045;-76
2023/07/05 09:31:01;;;;;;;4.55;1.10;;;;;;;29.83;44.22;100702.72;5015072;28;20045;-76
2023/07/05 09:34:23;;;;;;;6.75;1.75;;;;;;;30.10;43.54;100699.50;5015152;28;20053;-76
2023/07/05 09:37:26;;;;;;;4.18;1.30;;;;;;;30.07;42.44;100692.75;5019626;28;20048;-76
2023/07/05 09:40:32;;;;;;;3.30;1.63;;;;;;;29.04;44.27;100697.03;5024044;28;20529;-76
2023/07/05 09:43:38;;;;;;;1.77;1.42;;;;;;;29.53;42.62;100701.22;5034628;28;20048;-76
2023/07/05 09:46:42;;;;;;;3.20;1.05;;;;;;;30.63;40.82;100703.38;5034666;28;20517;-76
2023/07/05 09:49:44;;;;;;;1.90;1.10;;;;;;;31.13;38.86;100701.66;5049112;28;20525;-76
2023/07/05 09:52:47;;;;;;;4.93;1.13;;;;;;;30.56;38.65;100704.41;5034339;28;20049;-76
2023/07/05 09:56:09;;;;;;;3.45;1.17;;;;;;;31.36;38.04;100701.19;5034501;28;20056;-76
2023/07/05 09:59:24;;;;;;;2.90;1.20;;;;;;;31.32;37.92;100692.91;5051124;28;20163;-76
2023/07/05 10:02:33;;;;;;;3.80;1.13;;;;;;;31.59;37.93;100694.34;5046735;28;20053;-76
2023/07/05 10:05:39;;;;;;;8.70;1.70;;;;;;;32.28;36.29;100699.66;5034312;28;20056;-76
2023/07/05 10:08:47;;;;;;;3.45;1.40;;;;;;;32.92;35.25;100698.50;5033965;28;20109;-76
2023/07/05 10:11:51;;;;;;;4.10;1.17;;;;;;;33.45;34.26;100706.66;5036353;28;20049;-76
2023/07/05 10:15:02;;;;;;;2.63;1.38;;;;;;;33.60;34.29;100707.56;5021078;28;20045;-76
2023/07/05 10:18:04;;;;;;;2.97;1.48;;;;;;;34.01;33.35;100703.19;5015325;28;20072;-76
2023/07/05 10:21:08;;;;;;;3.67;1.45;;;;;;;28.48;44.30;100694.47;5019892;28;20040;-76
2023/07/05 10:24:12;;;;;;;12.02;1.42;;;;;;;27.64;46.80;100686.81;5040343;28;20057;-76
2023/07/05 10:27:31;;;;;;;3.58;1.60;;;;;;;27.16;48.12;100679.03;5021844;28;20041;-76
2023/07/05 10:30:35;;;;;;;3.53;1.50;;;;;;;26.53;49.58;100686.56;5030255;28;20461;-76
2023/07/05 10:33:38;;;;;;;2.83;1.30;;;;;;;26.74;49.16;100683.41;5020641;28;20064;-76
2023/07/05 10:36:48;;;;;;;4.38;1.40;;;;;;;26.32;49.80;100685.69;5033661;28;20521;-77
2023/07/05 10:39:50;;;;;;;6.07;1.30;;;;;;;26.21;50.22;100676.69;5030653;28;20052;-76
2023/07/05 10:43:09;;;;;;;3.42;1.50;;;;;;;26.15;48.96;100675.63;5025678;28;20048;-76
2023/07/05 10:46:13;;;;;;;3.53;1.08;;;;;;;26.20;49.64;100669.56;5024825;28;20060;-76
2023/07/05 10:49:17;;;;;;;3.72;1.30;;;;;;;26.16;49.99;100673.63;5032380;28;20052;-76
2023/07/05 10:52:21;;;;;;;4.57;1.60;;;;;;;26.08;49.63;100669.34;5021500;28;20109;-76
2023/07/05 10:55:27;;;;;;;4.70;1.37;;;;;;;26.09;49.77;100666.16;5030408;28;20521;-76
2023/07/05 10:58:31;;;;;;;4.80;1.23;;;;;;;26.17;50.04;100667.59;5013382;28;20415;-76
2023/07/05 11:01:54;;;;;;;1.85;1.15;;;;;;;26.33;49.29;100664.97;5021260;28;20048;-76
2023/07/05 11:04:57;;;;;;;3.33;1.25;;;;;;;26.49;48.97;100657.94;5029276;28;20052;-76
2023/07/05 11:08:03;;;;;;;1.95;1.02;;;;;;;26.28;49.51;100665.47;5015726;28;20041;-76
2023/07/05 11:11:06;;;;;;;1.73;1.05;;;;;;;26.27;49.43;100655.50;5028274;28;20120;-77
2023/07/05 11:14:09;;;;;;;5.40;1.10;;;;;;;26.44;49.19;100662.00;5024559;28;20049;-76
2023/07/05 11:17:17;;;;;;;3.35;0.98;;;;;;;26.12;50.29;100656.94;5041573;28;20044;-76
2023/07/05 11:20:42;;;;;;;3.10;1.85;;;;;;;26.14;50.97;100656.50;5049838;28;20391;-76
2023/07/05 11:23:51;;;;;;;3.42;1.13;;;;;;;26.53;49.94;100641.94;5032549;28;20044;-77
2023/07/05 11:26:54;;;;;;;1.75;1.00;;;;;;;26.45;50.17;100649.66;5032054;28;20052;-77
2023/07/05 11:29:56;;;;;;;2.83;1.40;;;;;;;26.92;48.94;100646.81;5033360;28;20524;-77
2023/07/05 11:33:17;;;;;;;1.50;1.08;;;;;;;26.70;49.83;100638.03;5045091;28;20049;-77
2023/07/05 11:36:38;;;;;;;3.80;1.10;;;;;;;26.70;49.74;100633.25;5032071;28;20044;-75
2023/07/05 11:39:43;;;;;;;3.05;0.98;;;;;;;27.00;48.40;100631.50;5032573;28;20048;-76
2023/07/05 11:42:52;;;;;;;2.05;1.15;;;;;;;26.81;49.40;100631.03;5044840;28;20049;-76
2023/07/05 11:45:58;;;;;;;2.03;1.30;;;;;;;27.19;48.31;100628.69;5032771;28;20052;-76
2023/07/05 11:49:00;;;;;;;1.92;1.00;;;;;;;27.12;48.77;100625.28;5032240;28;20044;-76
2023/07/05 11:52:02;;;;;;;1.77;0.90;;;;;;;26.65;50.09;100619.00;5032210;28;20052;-76
2023/07/05 11:55:08;;;;;;;2.33;0.90;;;;;;;26.53;50.35;100619.63;5031288;28;20521;-76
2023/07/05 11:58:28;;;;;;;1.95;1.10;;;;;;;26.60;50.59;100611.13;5031100;28;20048;-75
2023/07/05 12:01:34;;;;;;;2.25;1.13;;;;;;;26.80;49.88;100612.72;5032052;28;20044;-76
2023/07/05 12:04:37;;;;;;;1.35;0.88;;;;;;;27.26;47.84;100605.44;5032101;28;20052;-76
2023/07/05 12:07:37;;;;;;;;;;;;;;;27.00;48.93;100615.53;5032211;28;20041;-77
2023/07/05 12:10:40;;;;;;;1.67;1.00;;;;;;;27.41;47.09;100606.69;5022778;28;19913;-75
2023/07/05 12:13:46;;;;;;;1.13;1.00;;;;;;;27.50;46.95;100608.91;5031948;28;20044;-76
2023/07/05 12:16:48;;;;;;;1.40;0.90;;;;;;;27.24;47.28;100591.09;5026932;28;20708;-76
2023/07/05 12:19:52;;;;;;;4.45;1.27;;;;;;;27.37;47.57;100600.41;5024419;28;20517;-76
2023/07/05 12:22:55;;;;;;;1.83;0.88;;;;;;;27.04;48.65;100593.91;5024654;28;20052;-76
2023/07/05 12:26:02;;;;;;;2.33;1.20;;;;;;;27.03;48.84;100583.19;5025698;28;20052;-76
2023/07/05 12:29:05;;;;;;;2.40;1.40;;;;;;;26.86;49.72;100579.53;5023877;28;20044;-76
2023/07/05 12:32:25;;;;;;;1.40;0.90;;;;;;;26.96;48.89;100577.75;5025055;28;20037;-76
2023/07/05 12:35:29;;;;;;;4.88;1.13;;;;;;;26.95;48.23;100576.97;5019355;28;20048;-75
2023/07/05 12:38:31;;;;;;;1.10;0.80;;;;;;;27.06;47.39;100565.59;5018975;28;20045;-75
2023/07/05 12:41:37;;;;;;;1.92;0.98;;;;;;;27.25;47.20;100570.34;5011978;28;20053;-75
2023/07/05 12:44:39;;;;;;;3.03;1.13;;;;;;;27.17;48.20;100564.13;5025919;28;20513;-75
2023/07/05 12:47:41;;;;;;;2.95;0.88;;;;;;;27.35;45.94;100562.94;5022084;28;20048;-76
2023/07/05 12:50:44;;;;;;;3.15;1.10;;;;;;;27.38;45.11;100556.50;5035466;28;20045;-76
2023/07/05 12:53:46;;;;;;;2.25;0.95;;;;;;;27.72;44.15;100545.75;5025864;28;20107;-75
2023/07/05 12:56:51;;;;;;;2.67;0.90;;;;;;;27.91;43.98;100544.06;5026842;28;20056;-75
2023/07/05 12:59:55;;;;;;;3.25;1.70;;;;;;;27.96;42.90;100546.34;5021057;28;20521;-76
2023/07/05 13:02:58;;;;;;;6.57;1.20;;;;;;;28.05;44.30;100541.69;5019719;28;20530;-76
2023/07/05 13:06:00;;;;;;;1.42;1.00;;;;;;;27.78;44.61;100540.41;5011620;28;20057;-75
2023/07/05 13:09:04;;;;;;;2.08;1.05;;;;;;;27.68;45.89;100536.66;5024982;28;20403;-76
2023/07/05 13:12:09;;;;;;;2.47;0.75;;;;;;;27.23;47.46;100537.25;5044602;28;20056;-75
2023/07/05 13:15:13;;;;;;;2.25;1.23;;;;;;;27.28;45.99;100533.16;5031446;28;20653;-75
2023/07/05 13:18:30;;;;;;;1.95;1.02;;;;;;;27.29;47.21;100531.16;5043840;28;20053;-76
2023/07/05 13:21:39;;;;;;;1.67;1.20;;;;;;;26.87;48.55;100524.53;5033587;28;20049;-75
2023/07/05 13:24:49;;;;;;;2.45;1.02;;;;;;;26.78;49.41;100519.47;5027359;28;20048;-76
2023/07/05 13:27:51;;;;;;;2.33;1.17;;;;;;;26.78;49.00;100525.84;5030991;28;20056;-75
2023/07/05 13:31:00;;;;;;;3.28;1.63;;;;;;;26.97;48.90;100520.72;5031054;28;20052;-76
2023/07/05 13:34:06;;;;;;;1.52;1.23;;;;;;;27.00;49.14;100520.63;5030532;28;20057;-75
2023/07/05 13:37:18;;;;;;;4.40;1.40;;;;;;;26.79;49.79;100501.53;5029922;28;20071;-76
2023/07/05 13:40:26;;;;;;;5.47;1.20;;;;;;;26.81;49.53;100501.88;5028002;28;20045;-76
2023/07/05 13:43:29;;;;;;;1.95;0.95;;;;;;;26.69;50.48;100488.59;5029859;28;20061;-76
2023/07/05 13:46:33;;;;;;;2.15;1.33;;;;;;;26.73;50.00;100492.06;5023727;28;20529;-75
2023/07/05 13:49:35;;;;;;;1.98;1.40;;;;;;;27.12;48.29;100488.47;5031616;28;20049;-76
2023/07/05 13:52:39;;;;;;;4.82;1.25;;;;;;;26.90;49.34;100484.59;5022706;28;20041;-75
2023/07/05 13:55:44;;;;;;;3.63;1.73;;;;;;;27.03;48.95;100486.25;5026992;28;20064;-76
2023/07/05 13:58:46;;;;;;;11.25;1.80;;;;;;;27.28;48.50;100487.72;5026778;28;20061;-76
2023/07/05 14:01:50;;;;;;;8.45;1.35;;;;;;;26.94;49.39;100477.69;5048433;28;20057;-75
2023/07/05 14:04:52;;;;;;;7.57;1.63;;;;;;;26.99;49.05;100468.81;5034196;28;20040;-76
2023/07/05 14:07:55;;;;;;;4.35;1.80;;;;;;;26.95;49.52;100462.53;5034344;28;20044;-75
2023/07/05 14:10:58;;;;;;;6.43;1.80;;;;;;;26.76;50.26;100464.13;5034108;28;20045;-75
2023/07/05 14:14:01;;;;;;;3.95;1.50;;;;;;;26.88;49.95;100462.69;5034209;28;20112;-75
2023/07/05 14:17:03;;;;;;;4.90;2.10;;;;;;;27.18;48.70;100458.78;5051625;28;20041;-75
2023/07/05 14:20:06;;;;;;;3.47;1.42;;;;;;;26.79;49.77;100451.28;5033212;28;20056;-75
2023/07/05 14:23:13;;;;;;;6.00;1.58;;;;;;;26.97;49.68;100448.16;5028548;28;20040;-75
2023/07/05 14:26:16;;;;;;;4.68;1.95;;;;;;;27.20;48.90;100440.41;5024363;28;20532;-76
2023/07/05 14:29:18;;;;;;;4.78;2.20;;;;;;;27.49;48.18;100443.31;5028396;28;20037;-75
2023/07/05 14:32:21;;;;;;;3.65;1.58;;;;;;;27.31;49.18;100444.94;5018663;28;20422;-76
2023/07/05 14:35:29;;;;;;;3.65;2.03;;;;;;;27.04;49.92;100448.75;5032348;28;20049;-76
2023/07/05 14:38:32;;;;;;;6.97;1.48;;;;;;;26.86;50.28;100453.94;5029436;28;20128;-75
2023/07/05 14:41:34;;;;;;;2.63;1.63;;;;;;;27.13;49.28;100446.16;5024982;28;20040;-76
2023/07/05 14:44:37;;;;;;;4.97;1.70;;;;;;;27.34;48.61;100450.44;5036471;28;20048;-76
2023/07/05 14:47:40;;;;;;;2.30;1.50;;;;;;;27.23;49.89;100445.09;5045823;28;20044;-76
2023/07/05 14:50:42;;;;;;;3.70;1.88;;;;;;;27.04;50.24;100448.75;5033343;28;20044;-76
2023/07/05 14:53:46;;;;;;;3.42;1.65;;;;;;;26.94;50.58;100438.63;5033490;28;20068;-77
2023/07/05 14:56:49;;;;;;;3.97;1.67;;;;;;;27.00;49.99;100439.69;5028276;28;20521;-76
2023/07/05 14:59:51;;;;;;;3.78;1.77;;;;;;;27.14;50.14;100430.97;5028466;28;20049;-76
2023/07/05 15:03:09;;;;;;;4.63;2.03;;;;;;;27.30;48.56;100430.19;5012914;28;20049;-76
2023/07/05 15:06:12;;;;;;;12.57;2.28;;;;;;;26.99;50.61;100429.72;5013020;28;20053;-76
2023/07/05 15:09:15;;;;;;;13.90;2.30;;;;;;;27.34;49.64;100433.69;5013344;28;20518;-77
2023/07/05 15:12:18;;;;;;;33.53;2.85;;;;;;;26.94;50.69;100435.84;5048423;22;20051;-79
2023/07/05 15:15:23;;;;;;;24.52;2.80;;;;;;;27.12;50.61;100422.22;5072550;28;20047;-79